TimeCST,TemperatureF,Dew PointF,Humidity,Sea Level PressureIn,VisibilityMPH,Wind Direction,Wind SpeedMPH,Gust SpeedMPH,PrecipitationIn,Events,Conditions,WindDirDegrees,DateUTC
12:56 AM,35.1,32.0,89,29.93,5.0,SSE,11.5,-,N/A,,Clear,150,2012-12-01 06:56:00
1:56 AM,35.1,32.0,89,29.89,5.0,SSE,11.5,-,N/A,,Clear,160,2012-12-01 07:56:00
2:56 AM,35.1,32.0,89,29.88,5.0,South,8.1,-,N/A,,Clear,170,2012-12-01 08:56:00
3:56 AM,36.0,32.0,86,29.84,6.0,South,9.2,-,N/A,,Clear,170,2012-12-01 09:56:00
4:56 AM,37.0,33.1,86,29.80,6.0,South,11.5,-,N/A,,Clear,170,2012-12-01 10:56:00
5:56 AM,37.0,34.0,89,29.78,6.0,South,9.2,-,N/A,,Clear,170,2012-12-01 11:56:00
6:56 AM,37.0,35.1,93,29.76,5.0,South,11.5,-,N/A,,Clear,180,2012-12-01 12:56:00
7:56 AM,37.9,36.0,93,29.80,4.0,SSW,6.9,-,N/A,,Clear,200,2012-12-01 13:56:00
8:56 AM,39.9,37.0,89,29.80,4.0,SSW,11.5,-,N/A,,Partly Cloudy,200,2012-12-01 14:56:00
9:56 AM,41.0,37.9,89,29.81,4.0,SW,5.8,-,N/A,,Overcast,220,2012-12-01 15:56:00
10:56 AM,43.0,39.0,86,29.79,6.0,SW,6.9,-,N/A,,Scattered Clouds,220,2012-12-01 16:56:00
11:56 AM,46.0,39.0,76,29.77,7.0,SSW,6.9,-,N/A,,Partly Cloudy,210,2012-12-01 17:56:00
12:56 PM,51.1,37.9,61,29.75,10.0,SW,6.9,-,N/A,,Clear,220,2012-12-01 18:56:00
1:56 PM,55.0,36.0,49,29.75,10.0,West,6.9,-,N/A,,Clear,270,2012-12-01 19:56:00
2:56 PM,54.0,36.0,51,29.75,10.0,West,4.6,-,N/A,,Clear,270,2012-12-01 20:56:00
3:56 PM,52.0,37.0,57,29.77,10.0,Calm,Calm,-,N/A,,Clear,0,2012-12-01 21:56:00
4:56 PM,42.1,34.0,73,29.81,10.0,Calm,Calm,-,N/A,,Clear,0,2012-12-01 22:56:00
5:56 PM,45.0,35.1,68,29.82,10.0,West,3.5,-,N/A,,Clear,260,2012-12-01 23:56:00
6:56 PM,36.0,30.9,82,29.85,10.0,Calm,Calm,-,N/A,,Clear,0,2012-12-02 00:56:00
7:56 PM,30.9,28.0,89,29.86,10.0,NW,4.6,-,N/A,,Clear,320,2012-12-02 01:56:00
8:56 PM,30.0,27.0,88,29.87,10.0,Calm,Calm,-,N/A,,Partly Cloudy,0,2012-12-02 02:56:00
9:56 PM,30.0,27.0,88,29.88,10.0,Calm,Calm,-,N/A,,Clear,0,2012-12-02 03:56:00
10:56 PM,28.9,26.1,89,29.91,10.0,Calm,Calm,-,N/A,,Clear,0,2012-12-02 04:56:00
11:56 PM,27.0,24.1,89,29.92,10.0,Calm,Calm,-,N/A,,Clear,0,2012-12-02 05:56:00